Time;durP1;ratioP1;P1;durP2;ratioP2;P2;SDS_P1;SDS_P2;PMS_P1;PMS_P2;Temp;Humidity;BMP_temperature;BMP_pressure;BME280_temperature;BME280_humidity;BME280_pressure;Samples;Min_cycle;Max_cycle;Signal;HPM_P1;HPM_P2
2021/04/29 00:01:45;;;;;;;5.75;5.20;;;;;;;14.42;53.94;99370.97;4903998;28;99396;-60
2021/04/29 00:04:12;;;;;;;6.32;5.43;;;;;;;14.40;53.88;99367.78;4902243;28;98641;-61
2021/04/29 00:06:38;;;;;;;6.22;5.22;;;;;;;14.41;54.28;99363.94;4904167;28;117841;-61
2021/04/29 00:09:05;;;;;;;6.80;5.68;;;;;;;14.41;53.99;99374.78;4904274;28;112353;-60
2021/04/29 00:11:32;;;;;;;5.57;5.00;;;;;;;14.39;53.87;99362.69;4903656;28;112848;-61
2021/04/29 00:13:58;;;;;;;6.50;5.35;;;;;;;14.38;53.93;99366.50;4904499;28;98229;-61
2021/04/29 00:16:24;;;;;;;6.03;5.30;;;;;;;14.35;54.39;99359.81;4902817;28;97814;-60
2021/04/29 00:18:50;;;;;;;6.00;5.45;;;;;;;14.33;54.27;99362.03;4903406;28;127878;-60
2021/04/29 00:21:16;;;;;;;6.57;5.55;;;;;;;14.32;54.33;99363.16;4903293;28;127947;-60
2021/04/29 00:23:42;;;;;;;7.45;5.57;;;;;;;14.29;54.33;99363.78;4903317;28;122834;-62
2021/04/29 00:26:09;;;;;;;6.78;5.65;;;;;;;14.27;54.31;99366.03;4903265;28;118744;-61
2021/04/29 00:28:35;;;;;;;6.68;5.38;;;;;;;14.25;54.56;99371.75;4903939;28;98590;-61
2021/04/29 00:31:01;;;;;;;6.55;5.85;;;;;;;14.24;54.70;99366.66;4884440;28;129910;-61
2021/04/29 00:33:27;;;;;;;6.30;5.68;;;;;;;14.24;54.74;99366.66;4904003;28;97968;-60
2021/04/29 00:35:53;;;;;;;6.10;5.50;;;;;;;14.24;54.62;99367.44;4902864;28;116853;-60
2021/04/29 00:38:19;;;;;;;6.13;5.53;;;;;;;14.23;54.91;99357.72;4903770;28;99048;-61
2021/04/29 00:40:45;;;;;;;6.30;5.65;;;;;;;14.20;54.46;99361.06;4918189;28;98790;-60
2021/04/29 00:43:12;;;;;;;6.25;5.65;;;;;;;14.19;54.64;99358.69;4903311;28;125762;-60
2021/04/29 00:45:39;;;;;;;7.63;5.80;;;;;;;14.18;54.88;99362.50;4904186;28;97854;-61
2021/04/29 00:48:05;;;;;;;6.45;5.72;;;;;;;14.19;54.79;99358.69;4903211;28;108988;-60
2021/04/29 00:50:31;;;;;;;6.97;5.80;;;;;;;14.18;55.11;99357.06;4901146;28;109211;-61
2021/04/29 00:52:57;;;;;;;6.05;5.45;;;;;;;14.17;54.66;99353.56;4900624;28;128136;-60
2021/04/29 00:55:23;;;;;;;6.72;5.68;;;;;;;14.18;54.60;99351.66;4918014;28;97937;-61
2021/04/29 00:57:50;;;;;;;6.15;5.50;;;;;;;14.19;54.76;99353.28;4900235;28;125668;-59
2021/04/29 01:00:16;;;;;;;6.95;5.82;;;;;;;14.18;54.84;99352.44;4900789;28;128069;-61
2021/04/29 01:02:49;;;;;;;6.28;5.68;;;;;;;14.15;55.17;99353.09;4885026;28;110371;-59
2021/04/29 01:05:42;;;;;;;6.45;5.70;;;;;;;14.13;54.89;99349.09;4886860;28;100503;-61
2021/04/29 01:08:39;;;;;;;6.28;5.45;;;;;;;14.10;55.12;99349.75;4896445;28;98353;-59
2021/04/29 01:11:16;;;;;;;8.10;5.90;;;;;;;14.08;55.08;99351.97;4900981;28;99200;-59
2021/04/29 01:13:47;;;;;;;5.88;5.25;;;;;;;14.07;55.25;99347.66;4902913;28;98527;-59
2021/04/29 01:16:15;;;;;;;7.07;6.10;;;;;;;14.07;55.27;99344.94;4901831;28;98180;-60
2021/04/29 01:18:41;;;;;;;6.25;5.65;;;;;;;14.07;55.18;99348.47;4900936;28;117682;-62
2021/04/29 01:21:12;;;;;;;6.07;5.47;;;;;;;14.08;55.13;99343.84;4900012;28;128118;-61
2021/04/29 01:23:41;;;;;;;8.13;5.40;;;;;;;14.05;55.37;99345.28;4886315;28;97893;-62
2021/04/29 01:26:20;;;;;;;6.18;5.55;;;;;;;14.04;55.33;99337.47;4903344;28;97826;-60
2021/04/29 01:28:47;;;;;;;6.32;5.50;;;;;;;14.05;55.36;99339.06;4901651;28;98453;-60
2021/04/29 01:31:14;;;;;;;5.78;5.20;;;;;;;14.03;55.60;99338.56;4897719;28;98253;-60
2021/04/29 01:33:40;;;;;;;6.10;5.47;;;;;;;14.01;55.58;99330.78;4897252;28;127333;-60
2021/04/29 01:36:08;;;;;;;6.25;5.65;;;;;;;14.00;55.82;99329.97;4885206;28;98537;-61
2021/04/29 01:38:35;;;;;;;5.70;5.03;;;;;;;14.00;55.75;99324.56;4900444;28;99819;-59
2021/04/29 01:41:01;;;;;;;7.97;5.50;;;;;;;14.00;55.85;99312.94;4900858;28;98863;-59
2021/04/29 01:43:27;;;;;;;6.55;5.38;;;;;;;13.99;55.85;99319.47;4901095;28;97904;-59
2021/04/29 01:45:53;;;;;;;5.95;5.28;;;;;;;14.00;55.97;99312.94;4900338;28;104651;-61
2021/04/29 01:48:19;;;;;;;5.85;5.28;;;;;;;14.00;55.98;99312.94;4900450;28;128631;-62
2021/04/29 01:50:46;;;;;;;5.95;5.35;;;;;;;13.96;55.75;99312.75;4900033;28;120201;-60
2021/04/29 01:53:12;;;;;;;6.32;5.40;;;;;;;13.93;55.71;99310.69;4901739;28;97880;-60
2021/04/29 01:55:38;;;;;;;5.60;5.07;;;;;;;13.93;55.95;99307.19;4900305;28;118668;-61
2021/04/29 01:58:05;;;;;;;6.18;5.32;;;;;;;13.95;56.23;99305.75;4884521;28;112984;-61
2021/04/29 02:00:31;;;;;;;5.90;5.28;;;;;;;13.96;56.04;99304.63;4899869;28;126840;-61
2021/04/29 02:03:01;;;;;;;5.57;4.85;;;;;;;13.92;56.12;99298.25;4902070;28;98056;-61
2021/04/29 02:05:27;;;;;;;5.90;5.18;;;;;;;14.02;56.24;99299.84;4902522;28;97770;-61
2021/04/29 02:07:53;;;;;;;6.55;5.25;;;;;;;14.08;55.77;99295.88;4900783;28;98401;-60
2021/04/29 02:10:19;;;;;;;6.40;5.40;;;;;;;14.12;55.88;99291.41;4900636;28;98867;-62
2021/04/29 02:12:56;;;;;;;5.07;4.40;;;;;;;14.15;55.76;99290.78;4899906;28;116977;-61
2021/04/29 02:15:36;;;;;;;7.63;4.93;;;;;;;14.19;55.57;99289.03;4901175;28;99894;-62
2021/04/29 02:18:08;;;;;;;6.00;5.40;;;;;;;14.23;55.33;99289.97;4886227;28;98123;-59
2021/04/29 02:20:38;;;;;;;6.13;4.68;;;;;;;14.24;55.57;99282.66;4900883;28;98862;-59
2021/04/29 02:23:10;;;;;;;5.38;4.70;;;;;;;14.21;55.63;99277.84;4900570;28;97902;-59
2021/04/29 02:25:37;;;;;;;9.15;5.07;;;;;;;14.26;55.75;99280.41;4902312;28;98010;-60
2021/04/29 02:28:03;;;;;;;5.68;5.07;;;;;;;14.23;55.82;99271.00;4899925;28;111080;-60
2021/04/29 02:30:29;;;;;;;5.22;4.72;;;;;;;14.23;55.70;99262.88;4899899;28;113197;-60
2021/04/29 02:32:55;;;;;;;5.25;4.75;;;;;;;14.24;55.45;99258.25;4899889;28;126689;-61
2021/04/29 02:35:21;;;;;;;5.63;4.70;;;;;;;14.29;55.68;99268.13;4900856;28;99879;-62
2021/04/29 02:37:49;;;;;;;5.07;4.32;;;;;;;14.28;55.87;99263.81;4899311;28;124258;-60
2021/04/29 02:40:16;;;;;;;5.45;4.47;;;;;;;14.27;55.83;99256.81;4883364;28;98292;-62
2021/04/29 02:42:42;;;;;;;5.80;4.85;;;;;;;14.25;56.07;99260.63;4900932;28;98504;-61
2021/04/29 02:45:09;;;;;;;5.13;4.63;;;;;;;14.27;56.24;99254.13;4901728;28;98415;-60
2021/04/29 02:47:40;;;;;;;5.30;4.63;;;;;;;14.27;56.26;99252.19;4901906;28;98888;-62
2021/04/29 02:50:09;;;;;;;5.10;4.28;;;;;;;14.26;56.25;99247.88;4901767;28;98649;-62
2021/04/29 02:52:36;;;;;;;4.80;4.20;;;;;;;14.23;56.29;99245.81;4902225;28;97911;-61
2021/04/29 02:55:03;;;;;;;5.32;4.28;;;;;;;14.24;56.21;99247.41;4880682;28;102755;-61
2021/04/29 02:57:29;;;;;;;5.65;4.80;;;;;;;14.22;56.12;99247.72;4883402;28;98777;-60
2021/04/29 02:59:55;;;;;;;4.85;4.38;;;;;;;14.21;56.39;99242.63;4879445;28;127942;-60
2021/04/29 03:02:22;;;;;;;5.82;4.80;;;;;;;14.19;56.47;99242.16;4895106;28;126755;-60
2021/04/29 03:04:48;;;;;;;6.20;4.45;;;;;;;14.20;56.46;99244.53;4882706;28;97989;-62
2021/04/29 03:07:15;;;;;;;5.50;4.57;;;;;;;14.15;56.68;99242.00;4880610;28;97856;-62
2021/04/29 03:09:41;;;;;;;5.47;4.78;;;;;;;14.16;57.00;99240.09;4883176;28;107586;-60
2021/04/29 03:12:07;;;;;;;5.10;4.40;;;;;;;14.16;56.92;99234.66;4863473;28;128376;-60
2021/04/29 03:14:33;;;;;;;5.35;4.38;;;;;;;14.15;56.68;99233.09;4882367;28;105776;-60
2021/04/29 03:16:59;;;;;;;5.55;4.60;;;;;;;14.15;56.90;99233.88;4881612;28;98383;-60
2021/04/29 03:19:25;;;;;;;5.18;4.38;;;;;;;14.16;56.75;99232.75;4881630;28;123141;-62
2021/04/29 03:21:52;;;;;;;5.30;4.35;;;;;;;14.15;56.91;99243.91;4882787;28;127859;-61
2021/04/29 03:24:18;;;;;;;4.90;4.40;;;;;;;14.14;56.79;99239.59;4901247;28;117678;-62
2021/04/29 03:26:45;;;;;;;5.47;4.20;;;;;;;14.12;57.05;99242.63;4900434;28;128634;-60
2021/04/29 03:29:11;;;;;;;5.30;4.40;;;;;;;14.15;57.09;99244.72;4901770;28;98672;-62
2021/04/29 03:31:37;;;;;;;5.45;4.47;;;;;;;14.14;57.10;99239.59;4900875;28;109216;-62
2021/04/29 03:34:03;;;;;;;5.72;4.78;;;;;;;14.11;57.21;99227.50;4901880;28;97687;-62
2021/04/29 03:36:29;;;;;;;5.75;4.32;;;;;;;14.12;57.22;99226.38;4900676;28;127844;-60
2021/04/29 03:38:55;;;;;;;4.95;4.45;;;;;;;14.11;57.29;99232.91;4901506;28;119008;-62
2021/04/29 03:41:21;;;;;;;5.68;4.50;;;;;;;14.12;57.30;99237.22;4901021;28;99573;-60
2021/04/29 03:43:48;;;;;;;5.15;4.43;;;;;;;14.09;57.71;99237.06;4901058;28;118577;-60
2021/04/29 03:46:14;;;;;;;4.90;4.40;;;;;;;14.08;57.85;99232.75;4900776;28;122293;-60
2021/04/29 03:48:40;;;;;;;5.32;4.38;;;;;;;14.09;57.52;99227.00;4900559;28;128888;-60
2021/04/29 03:51:06;;;;;;;4.40;3.90;;;;;;;14.07;57.76;99223.84;4901177;28;98129;-62
2021/04/29 03:53:32;;;;;;;5.57;4.53;;;;;;;14.07;57.88;99226.56;4901087;28;118937;-60
2021/04/29 03:55:58;;;;;;;4.88;4.38;;;;;;;14.09;57.96;99256.03;4900574;28;122563;-62
2021/04/29 03:58:24;;;;;;;5.47;4.90;;;;;;;14.11;58.11;99249.19;4901070;28;98896;-60
2021/04/29 04:00:51;;;;;;;5.38;4.72;;;;;;;14.08;58.18;99249.03;4899496;28;128398;-62
2021/04/29 04:03:17;;;;;;;5.38;4.72;;;;;;;14.10;58.39;99261.13;4902441;28;98343;-62
2021/04/29 04:05:43;;;;;;;5.95;5.22;;;;;;;14.09;58.22;99264.16;4904346;28;99004;-60
2021/04/29 04:08:09;;;;;;;5.57;4.97;;;;;;;14.09;58.40;99251.41;4903864;28;128027;-60
2021/04/29 04:10:35;;;;;;;5.60;4.97;;;;;;;14.10;58.57;99260.31;4903512;28;126544;-60
2021/04/29 04:13:01;;;;;;;5.38;4.88;;;;;;;14.09;58.60;99251.41;4885478;28;116990;-62
2021/04/29 04:15:27;;;;;;;5.60;4.88;;;;;;;14.09;58.53;99247.91;4902973;28;127586;-62
2021/04/29 04:17:53;;;;;;;5.45;4.85;;;;;;;14.10;58.65;99244.84;4901572;28;129085;-60
2021/04/29 04:20:19;;;;;;;5.13;4.63;;;;;;;14.11;58.59;99240.22;4901491;28;126347;-61
2021/04/29 04:22:45;;;;;;;5.43;4.93;;;;;;;14.10;59.04;99236.72;4919260;28;98301;-62
2021/04/29 04:25:12;;;;;;;5.13;4.53;;;;;;;14.11;59.18;99238.34;4885161;28;128301;-60
2021/04/29 04:27:38;;;;;;;5.35;4.82;;;;;;;14.12;58.81;99242.63;4901887;28;98070;-61
2021/04/29 04:30:06;;;;;;;5.50;4.95;;;;;;;14.14;58.77;99250.44;4901824;28;126776;-61
2021/04/29 04:32:32;;;;;;;7.40;5.28;;;;;;;14.11;58.79;99249.19;4910629;28;97856;-60
2021/04/29 04:34:59;;;;;;;6.20;5.18;;;;;;;14.16;58.61;99256.34;4903238;28;128035;-60
2021/04/29 04:37:25;;;;;;;6.82;5.07;;;;;;;14.16;58.83;99259.06;4882053;28;116335;-60
2021/04/29 04:39:51;;;;;;;6.63;5.13;;;;;;;14.16;58.65;99251.72;4899083;28;127004;-60
2021/04/29 04:42:18;;;;;;;6.63;5.72;;;;;;;14.17;58.74;99274.19;4882014;28;116942;-62
2021/04/29 04:44:44;;;;;;;6.32;5.30;;;;;;;14.17;58.69;99285.03;4899013;28;98501;-60
2021/04/29 04:47:10;;;;;;;7.88;5.40;;;;;;;14.17;58.54;99299.38;4897383;28;127980;-63
2021/04/29 04:49:36;;;;;;;5.82;5.22;;;;;;;14.21;58.81;99310.38;4881872;28;128185;-60
2021/04/29 04:52:02;;;;;;;5.55;4.82;;;;;;;14.17;59.10;99309.41;4899543;28;117658;-62
2021/04/29 04:54:28;;;;;;;7.38;5.07;;;;;;;14.17;59.06;99304.78;4882055;28;111934;-62
2021/04/29 04:56:54;;;;;;;5.22;4.70;;;;;;;14.20;58.98;99300.66;4898967;28;98544;-62
2021/04/29 04:59:20;;;;;;;5.78;4.93;;;;;;;14.16;59.57;99300.50;4898125;28;126972;-60
2021/04/29 05:01:46;;;;;;;6.40;5.38;;;;;;;14.19;59.27;99308.00;4903492;28;100518;-60
2021/04/29 05:04:12;;;;;;;6.50;4.75;;;;;;;14.21;59.63;99299.53;4901084;28;128904;-60
2021/04/29 05:06:38;;;;;;;7.93;4.88;;;;;;;14.24;59.99;99298.91;4900412;28;127120;-60
2021/04/29 05:09:05;;;;;;;5.13;4.63;;;;;;;14.27;59.83;99306.41;4900734;28;118333;-60
2021/04/29 05:11:31;;;;;;;6.47;4.82;;;;;;;14.30;59.64;99316.59;4918104;28;99695;-60
2021/04/29 05:13:58;;;;;;;5.43;4.63;;;;;;;14.33;59.52;99317.88;4917696;28;102169;-62
2021/04/29 05:16:24;;;;;;;5.30;4.80;;;;;;;14.34;59.77;99324.88;4902226;28;97841;-60
2021/04/29 05:18:50;;;;;;;5.35;4.63;;;;;;;14.37;59.80;99316.91;4902660;28;116272;-60
2021/04/29 05:21:16;;;;;;;5.57;4.53;;;;;;;14.37;59.77;99322.31;4902817;28;103056;-62
2021/04/29 05:23:44;;;;;;;5.05;4.55;;;;;;;14.37;59.87;99325.03;4901819;28;126410;-62
2021/04/29 05:26:10;;;;;;;4.93;4.43;;;;;;;14.40;60.07;99324.41;4902690;28;98600;-62
2021/04/29 05:28:36;;;;;;;4.95;4.45;;;;;;;14.38;60.08;99309.56;4903426;28;97957;-60
2021/04/29 05:31:02;;;;;;;8.52;4.60;;;;;;;14.41;60.25;99315.16;4902914;28;117759;-62
2021/04/29 05:33:28;;;;;;;5.13;4.63;;;;;;;14.39;60.53;99305.75;4903697;28;98799;-62
2021/04/29 05:35:54;;;;;;;5.05;4.28;;;;;;;14.38;60.65;99304.97;4901954;28;127403;-60
2021/04/29 05:38:20;;;;;;;5.25;4.50;;;;;;;14.38;60.87;99306.84;4902577;28;125291;-60
2021/04/29 05:40:46;;;;;;;5.38;4.88;;;;;;;14.38;60.94;99296.00;4903361;28;97866;-60
2021/04/29 05:43:12;;;;;;;4.85;4.35;;;;;;;14.36;61.09;99298.25;4902189;28;120288;-60
2021/04/29 05:45:38;;;;;;;5.00;4.50;;;;;;;14.36;61.58;99295.53;4902479;28;126798;-62
2021/04/29 05:48:05;;;;;;;5.55;4.45;;;;;;;14.35;61.47;99280.41;4903515;28;97842;-60
2021/04/29 05:50:31;;;;;;;5.13;4.43;;;;;;;14.35;61.27;99270.34;4901603;28;109873;-59
2021/04/29 05:52:57;;;;;;;5.72;4.32;;;;;;;14.34;61.52;99249.78;4902509;28;98799;-62
2021/04/29 05:55:23;;;;;;;5.20;4.45;;;;;;;14.36;61.55;99244.03;4902302;28;114957;-59
2021/04/29 05:57:49;;;;;;;5.20;4.68;;;;;;;14.35;61.49;99245.97;4900833;28;97707;-62
2021/04/29 06:00:16;;;;;;;4.88;4.32;;;;;;;14.37;61.46;99238.28;4901910;28;97819;-62
2021/04/29 06:02:42;;;;;;;4.53;4.07;;;;;;;14.39;61.71;99240.69;4900003;28;112043;-62
2021/04/29 06:05:08;;;;;;;4.72;4.25;;;;;;;14.40;61.49;99243.06;4902715;28;99332;-60
2021/04/29 06:07:34;;;;;;;6.22;4.50;;;;;;;14.44;61.52;99240.53;4901409;28;111967;-60
2021/04/29 06:10:00;;;;;;;5.07;4.28;;;;;;;14.44;61.78;99241.31;4903169;28;98077;-62
2021/04/29 06:12:26;;;;;;;5.68;4.60;;;;;;;14.45;61.84;99255.66;4899831;28;127785;-60
2021/04/29 06:14:53;;;;;;;4.60;4.20;;;;;;;14.42;62.18;99286.13;4901711;28;126067;-60
2021/04/29 06:17:19;;;;;;;6.47;4.88;;;;;;;14.39;62.41;99330.16;4916343;28;98071;-60
2021/04/29 06:19:45;;;;;;;5.10;4.47;;;;;;;14.38;62.46;99351.06;4903038;28;98098;-62
2021/04/29 06:22:11;;;;;;;5.65;4.90;;;;;;;14.36;62.38;99345.13;4901910;28;108629;-62
2021/04/29 06:24:37;;;;;;;5.22;4.60;;;;;;;14.36;62.41;99337.00;4901989;28;127993;-62
2021/04/29 06:27:03;;;;;;;5.00;4.47;;;;;;;14.39;62.67;99351.84;4901342;28;98162;-59
2021/04/29 06:29:30;;;;;;;5.10;4.60;;;;;;;14.39;62.51;99355.34;4902900;28;97688;-62
2021/04/29 06:31:57;;;;;;;4.82;4.32;;;;;;;14.40;62.65;99356.13;4901860;28;99243;-60
2021/04/29 06:34:23;;;;;;;5.63;4.88;;;;;;;14.42;62.77;99356.59;4902854;28;98458;-62
2021/04/29 06:36:49;;;;;;;5.30;4.72;;;;;;;14.45;62.79;99347.84;4899910;28;110301;-60
2021/04/29 06:39:15;;;;;;;5.65;4.70;;;;;;;14.50;62.61;99350.41;4902377;28;99752;-60
2021/04/29 06:41:42;;;;;;;5.75;4.80;;;;;;;14.51;62.94;99346.59;4901496;28;98932;-62
2021/04/29 06:44:08;;;;;;;5.75;4.70;;;;;;;14.52;62.65;99356.31;4902249;28;98929;-60
2021/04/29 06:46:34;;;;;;;5.85;4.57;;;;;;;14.54;62.96;99356.81;4901318;28;128003;-63
2021/04/29 06:49:00;;;;;;;5.93;4.82;;;;;;;14.61;62.63;99356.31;4901836;28;118590;-59
2021/04/29 06:51:26;;;;;;;5.40;4.90;;;;;;;14.75;62.89;99356.94;4900780;28;99227;-60
2021/04/29 06:53:52;;;;;;;5.40;4.80;;;;;;;14.85;62.13;99355.78;4899890;28;111811;-62
2021/04/29 06:56:18;;;;;;;5.10;4.50;;;;;;;14.90;62.53;99356.44;4901195;28;119910;-59
2021/04/29 06:58:44;;;;;;;5.57;4.80;;;;;;;14.94;62.34;99351.16;4900191;28;98137;-59
2021/04/29 07:01:10;;;;;;;5.10;4.60;;;;;;;14.98;62.32;99360.25;4900229;28;98649;-62
2021/04/29 07:03:36;;;;;;;5.80;4.90;;;;;;;14.98;62.88;99358.34;4899158;28;102313;-59
2021/04/29 07:06:03;;;;;;;5.30;4.80;;;;;;;14.99;63.06;99359.13;4899331;28;118654;-59
2021/04/29 07:08:29;;;;;;;5.50;5.00;;;;;;;14.97;62.91;99355.94;4901584;28;108441;-62
2021/04/29 07:10:55;;;;;;;6.13;5.05;;;;;;;15.01;63.06;99353.38;4901336;28;101164;-59
2021/04/29 07:13:21;;;;;;;6.18;5.25;;;;;;;15.03;62.85;99354.66;4900585;28;127963;-62
2021/04/29 07:15:47;;;;;;;7.45;5.68;;;;;;;15.09;63.25;99363.41;4901486;28;100083;-63
2021/04/29 07:18:14;;;;;;;6.30;5.60;;;;;;;15.18;62.64;99356.84;4901294;28;117273;-59
2021/04/29 07:20:41;;;;;;;7.30;5.10;;;;;;;15.26;62.81;99357.94;4901293;28;98991;-60
2021/04/29 07:23:07;;;;;;;6.57;5.43;;;;;;;15.33;62.25;99355.53;4901013;28;97903;-60
2021/04/29 07:25:34;;;;;;;7.25;5.82;;;;;;;15.34;62.34;99350.88;4903060;28;98593;-59
2021/04/29 07:28:00;;;;;;;6.68;5.78;;;;;;;15.37;62.68;99361.09;4902351;28;99213;-59
2021/04/29 07:30:26;;;;;;;6.57;5.45;;;;;;;15.43;62.48;99357.06;4901127;28;98708;-62
2021/04/29 07:32:53;;;;;;;6.75;5.75;;;;;;;15.54;62.63;99357.50;4901442;28;97878;-60
2021/04/29 07:35:21;;;;;;;6.75;5.97;;;;;;;15.64;62.44;99351.69;4901480;28;98275;-60
2021/04/29 07:37:47;;;;;;;6.95;6.10;;;;;;;15.69;61.90;99349.63;4902138;28;98116;-62
2021/04/29 07:40:13;;;;;;;7.60;6.10;;;;;;;15.71;62.47;99352.00;4905247;28;98722;-62
2021/04/29 07:42:39;;;;;;;6.80;6.15;;;;;;;15.71;62.35;99352.00;4904410;28;105863;-60
2021/04/29 07:45:06;;;;;;;7.18;6.50;;;;;;;15.76;62.48;99351.84;4918931;28;98348;-59
2021/04/29 07:47:32;;;;;;;8.10;6.50;;;;;;;15.83;61.98;99348.56;4905150;28;97943;-62
2021/04/29 07:49:58;;;;;;;7.07;6.38;;;;;;;15.84;61.92;99355.63;4903064;28;127970;-60
2021/04/29 07:52:24;;;;;;;7.35;6.55;;;;;;;15.82;62.49;99349.72;4903587;28;125893;-62
2021/04/29 07:54:50;;;;;;;7.57;6.63;;;;;;;15.76;62.65;99351.00;4903948;28;126794;-62
2021/04/29 07:57:18;;;;;;;7.35;6.63;;;;;;;15.68;62.75;99349.97;4904739;28;97958;-62
2021/04/29 07:59:44;;;;;;;7.15;6.45;;;;;;;15.76;62.80;99353.72;4904953;28;98316;-60
2021/04/29 08:02:10;;;;;;;6.85;6.15;;;;;;;15.84;62.71;99355.63;4903882;28;128837;-60
2021/04/29 08:04:36;;;;;;;7.50;6.55;;;;;;;15.99;62.49;99352.31;4902666;28;127948;-62
2021/04/29 08:07:03;;;;;;;7.60;6.68;;;;;;;16.17;61.78;99345.63;4904469;28;98202;-62
2021/04/29 08:09:29;;;;;;;6.72;6.03;;;;;;;16.23;61.89;99356.31;4904367;28;114904;-62
2021/04/29 08:11:55;;;;;;;7.38;6.47;;;;;;;16.29;61.79;99358.50;4904025;28;99238;-62
2021/04/29 08:14:21;;;;;;;7.40;6.57;;;;;;;16.34;62.01;99350.13;4903258;28;127920;-62
2021/04/29 08:16:48;;;;;;;8.10;6.75;;;;;;;16.36;62.37;99353.34;4904399;28;97890;-62
2021/04/29 08:19:14;;;;;;;7.18;6.32;;;;;;;16.47;61.92;99344.78;4903542;28;98718;-60
2021/04/29 08:21:40;;;;;;;7.75;6.82;;;;;;;16.57;61.86;99342.41;4902859;28;126491;-62
2021/04/29 08:24:07;;;;;;;7.80;6.55;;;;;;;16.51;61.89;99345.69;4903946;28;127298;-63
2021/04/29 08:26:33;;;;;;;7.35;6.47;;;;;;;16.58;61.89;99352.16;4911509;28;97757;-63
2021/04/29 08:28:59;;;;;;;7.47;6.50;;;;;;;16.67;61.91;99346.66;4918018;28;102772;-60
2021/04/29 08:31:25;;;;;;;7.60;6.80;;;;;;;16.69;61.69;99350.63;4903196;28;99029;-62
2021/04/29 08:33:52;;;;;;;8.82;7.00;;;;;;;16.91;61.06;99346.78;4903133;28;103897;-62
2021/04/29 08:36:18;;;;;;;7.35;6.00;;;;;;;17.27;60.22;99352.63;4903794;28;98279;-60
2021/04/29 08:38:44;;;;;;;6.97;6.20;;;;;;;17.76;58.47;99347.22;4902764;28;128653;-60
2021/04/29 08:41:10;;;;;;;8.30;6.22;;;;;;;17.86;58.85;99352.22;4902661;28;127015;-60
2021/04/29 08:43:37;;;;;;;6.90;6.20;;;;;;;18.08;57.22;99353.66;4903768;28;127214;-60
2021/04/29 08:46:05;;;;;;;7.72;6.40;;;;;;;18.21;57.85;99349.75;4898992;28;98247;-60
2021/04/29 08:48:31;;;;;;;6.47;5.88;;;;;;;18.14;57.99;99361.25;4899056;28;98382;-60
2021/04/29 08:50:57;;;;;;;6.75;6.03;;;;;;;18.14;59.24;99361.25;4903618;28;98122;-60
2021/04/29 08:53:23;;;;;;;6.82;5.53;;;;;;;18.13;58.92;99358.88;4901950;28;98684;-60
2021/04/29 08:55:49;;;;;;;6.40;5.72;;;;;;;18.24;58.46;99357.25;4903421;28;98077;-63
2021/04/29 08:58:16;;;;;;;6.47;5.78;;;;;;;18.69;57.80;99349.94;4901832;28;128061;-60
2021/04/29 09:00:42;;;;;;;6.75;6.00;;;;;;;19.43;56.08;99348.38;4903632;28;98922;-60
2021/04/29 09:03:08;;;;;;;6.13;5.13;;;;;;;20.59;53.69;99350.59;4902898;28;128205;-61
2021/04/29 09:05:34;;;;;;;7.05;4.95;;;;;;;20.79;54.05;99351.41;4918449;28;97848;-60
2021/04/29 09:08:06;;;;;;;6.20;5.13;;;;;;;20.99;53.87;99349.41;4903469;28;98724;-62
2021/04/29 09:10:40;;;;;;;5.57;5.05;;;;;;;21.61;52.85;99352.03;4917946;28;98385;-60
2021/04/29 09:13:19;;;;;;;6.03;5.38;;;;;;;22.46;51.27;99357.97;4903266;28;103763;-63
2021/04/29 09:15:46;;;;;;;5.50;4.53;;;;;;;22.40;51.99;99359.44;4901569;28;104564;-63
2021/04/29 09:18:16;;;;;;;4.95;4.45;;;;;;;22.40;52.30;99360.25;4904411;28;99079;-61
2021/04/29 09:21:02;;;;;;;5.85;5.10;;;;;;;22.34;52.62;99352.72;4903559;28;98826;-63
2021/04/29 09:23:29;;;;;;;5.32;4.82;;;;;;;22.38;52.71;99361.78;4903183;28;98510;-64
2021/04/29 09:26:07;;;;;;;5.72;5.00;;;;;;;22.38;52.74;99354.34;4901828;28;98076;-63
2021/04/29 09:28:58;;;;;;;5.30;4.70;;;;;;;22.48;52.64;99356.44;4903423;28;98082;-63
2021/04/29 09:31:27;;;;;;;5.80;5.20;;;;;;;22.76;52.18;99361.47;4902236;28;98592;-63
2021/04/29 09:33:58;;;;;;;4.80;4.28;;;;;;;23.12;51.66;99355.56;4902934;28;98226;-60
2021/04/29 09:36:31;;;;;;;4.97;4.32;;;;;;;23.29;51.33;99343.94;4903740;28;98249;-61
2021/04/29 09:39:17;;;;;;;4.93;4.43;;;;;;;23.73;50.63;99345.88;4902573;28;98659;-63
2021/04/29 09:41:48;;;;;;;5.30;4.13;;;;;;;24.64;48.56;99340.47;4902738;28;98947;-61
2021/04/29 09:44:18;;;;;;;4.47;4.07;;;;;;;25.68;46.22;99339.41;4903816;28;98152;-64
2021/04/29 09:47:00;;;;;;;4.45;4.05;;;;;;;25.75;46.80;99329.56;4902329;28;98492;-61
2021/04/29 09:49:33;;;;;;;4.57;3.80;;;;;;;26.96;44.10;99337.41;4903227;28;98389;-61
2021/04/29 09:52:02;;;;;;;3.80;3.38;;;;;;;26.26;45.61;99342.88;4902836;28;98954;-61
2021/04/29 09:54:33;;;;;;;4.38;3.92;;;;;;;25.86;46.89;99338.63;4903325;28;97819;-61
2021/04/29 09:57:04;;;;;;;4.20;3.73;;;;;;;25.04;48.71;99335.84;4902823;28;98654;-61
2021/04/29 09:59:30;;;;;;;4.85;3.92;;;;;;;24.12;50.57;99332.34;4901124;28;98768;-61
2021/04/29 10:01:57;;;;;;;4.10;3.70;;;;;;;23.68;51.51;99335.25;4902667;28;98357;-64
2021/04/29 10:04:24;;;;;;;4.10;3.70;;;;;;;23.46;51.85;99337.00;4900760;28;98037;-63
2021/04/29 10:06:50;;;;;;;4.18;3.78;;;;;;;23.04;52.42;99338.22;4900990;28;102086;-61
2021/04/29 10:09:16;;;;;;;4.53;4.13;;;;;;;22.53;53.55;99339.63;4903077;28;98392;-63
2021/04/29 10:11:44;;;;;;;4.93;4.15;;;;;;;21.87;54.86;99338.34;4902956;28;98190;-63
2021/04/29 10:14:11;;;;;;;4.88;4.47;;;;;;;22.21;54.37;99343.94;4902119;28;111984;-61
2021/04/29 10:16:38;;;;;;;5.40;4.90;;;;;;;22.23;53.50;99347.06;4899754;28;103375;-60
2021/04/29 10:19:04;;;;;;;4.88;4.38;;;;;;;21.84;54.38;99335.53;4901012;28;99260;-63
2021/04/29 10:21:30;;;;;;;5.13;4.60;;;;;;;21.43;54.83;99346.28;4899986;28;99672;-60
2021/04/29 10:23:56;;;;;;;5.03;4.53;;;;;;;20.98;55.64;99347.81;4901211;28;126579;-63
2021/04/29 10:26:31;;;;;;;5.45;4.72;;;;;;;20.50;56.64;99350.03;4901214;28;98121;-61
2021/04/29 10:28:59;;;;;;;4.80;4.20;;;;;;;20.06;57.54;99342.06;4902951;28;98379;-63
2021/04/29 10:31:31;;;;;;;4.38;3.97;;;;;;;19.69;58.07;99353.34;4900378;28;99024;-63
2021/04/29 10:34:02;;;;;;;4.45;4.05;;;;;;;19.45;58.40;99356.22;4902312;28;98107;-60
2021/04/29 10:36:40;;;;;;;3.88;3.53;;;;;;;19.45;58.28;99357.00;4891187;28;98379;-63
2021/04/29 10:39:18;;;;;;;3.88;3.50;;;;;;;19.61;57.56;99363.31;4901645;28;98630;-61
2021/04/29 10:41:47;;;;;;;4.55;3.13;;;;;;;20.09;55.95;99358.53;4902451;28;98375;-63
2021/04/29 10:44:18;;;;;;;2.92;2.60;;;;;;;20.49;55.14;99354.72;4902844;28;97857;-63
2021/04/29 10:46:48;;;;;;;2.80;2.60;;;;;;;21.01;53.55;99355.31;4901960;28;97874;-63
2021/04/29 10:49:15;;;;;;;2.83;2.35;;;;;;;21.45;52.58;99346.69;4899597;28;98450;-63
2021/04/29 10:51:46;;;;;;;3.13;2.50;;;;;;;22.11;50.94;99347.28;4915491;28;98536;-61
2021/04/29 10:54:15;;;;;;;3.22;2.47;;;;;;;24.89;44.38;99348.81;4901886;28;109989;-61
2021/04/29 10:56:42;;;;;;;2.55;2.35;;;;;;;27.56;39.20;99352.78;4901547;28;97902;-61
2021/04/29 10:59:14;;;;;;;2.42;2.05;;;;;;;28.09;38.64;99345.16;4902283;28;98406;-64
2021/04/29 11:01:45;;;;;;;1.75;1.30;;;;;;;28.71;38.25;99349.56;4901678;28;98891;-64
2021/04/29 11:04:19;;;;;;;1.80;1.38;;;;;;;30.47;34.90;99364.88;4901935;28;98189;-64
2021/04/29 11:06:49;;;;;;;1.60;1.15;;;;;;;27.80;40.56;99364.84;4901820;28;98251;-64
2021/04/29 11:09:24;;;;;;;1.45;1.00;;;;;;;30.40;36.12;99355.91;4916177;28;98864;-61
2021/04/29 11:12:01;;;;;;;1.30;0.90;;;;;;;31.20;34.45;99365.66;4901745;28;99093;-65
2021/04/29 11:14:41;;;;;;;1.75;0.80;;;;;;;32.05;33.79;99358.41;4905126;28;97992;-62
2021/04/29 11:17:21;;;;;;;1.30;0.90;;;;;;;32.38;33.60;99361.84;4905167;28;98105;-62
2021/04/29 11:19:54;;;;;;;1.30;0.90;;;;;;;33.14;32.40;99352.84;4904684;28;98425;-64
2021/04/29 11:22:25;;;;;;;1.17;0.95;;;;;;;33.89;31.71;99347.56;4899718;28;98565;-63
2021/04/29 11:24:52;;;;;;;1.52;0.95;;;;;;;34.33;31.45;99345.56;4916029;28;98715;-65
2021/04/29 11:27:29;;;;;;;2.00;0.90;;;;;;;35.11;30.77;99366.22;4905099;28;97902;-62
2021/04/29 11:30:05;;;;;;;1.88;0.77;;;;;;;35.72;29.25;99363.72;4905108;28;99499;-62
2021/04/29 11:32:32;;;;;;;1.40;0.90;;;;;;;36.19;28.58;99363.28;4904772;28;98567;-62